Time;durP1;ratioP1;P1;durP2;ratioP2;P2;SDS_P1;SDS_P2;PMS_P1;PMS_P2;Temp;Humidity;BMP_temperature;BMP_pressure;BME280_temperature;BME280_humidity;BME280_pressure;Samples;Min_cycle;Max_cycle;Signal;HPM_P1;HPM_P2
2021/06/09 00:00:30;;;;;;;7.67;6.50;;;;;;;18.37;54.37;100288.23;126784;1090;102903;-80
2021/06/09 00:03:20;;;;;;;8.00;6.00;;;;;;;18.34;54.57;100290.23;126644;1090;102988;-81
2021/06/09 00:06:08;;;;;;;12.17;6.47;;;;;;;18.30;54.63;100288.70;126649;1090;114129;-80
2021/06/09 00:08:55;;;;;;;;;;;;;;;18.26;55.24;100292.48;126788;1088;102878;-81
2021/06/09 00:11:43;;;;;;;8.50;6.30;;;;;;;18.21;54.78;100278.74;126690;1089;102882;-81
2021/06/09 00:14:31;;;;;;;9.60;6.37;;;;;;;18.19;55.21;100285.91;126744;1090;101982;-81
2021/06/09 00:17:19;;;;;;;9.50;6.43;;;;;;;18.12;55.38;100283.64;126581;1089;112986;-80
2021/06/09 00:20:16;;;;;;;8.77;6.50;;;;;;;18.08;55.30;100287.42;126741;1090;102787;-80
2021/06/09 00:23:04;;;;;;;8.37;6.13;;;;;;;18.06;55.25;100283.19;126631;1089;114015;-80
2021/06/09 00:25:54;;;;;;;9.43;6.47;;;;;;;18.03;55.50;100280.74;126780;1088;102938;-80
2021/06/09 00:28:42;;;;;;;9.73;6.53;;;;;;;18.00;55.63;100279.15;126613;1090;114084;-80
2021/06/09 00:31:29;;;;;;;11.67;6.90;;;;;;;17.98;55.51;100285.47;126709;1088;103031;-80
2021/06/09 00:34:17;;;;;;;8.67;6.97;;;;;;;17.95;55.90;100278.56;126655;1089;114599;-80
2021/06/09 00:37:05;;;;;;;8.53;6.90;;;;;;;17.92;56.05;100275.27;126789;1090;102901;-80
2021/06/09 00:39:54;;;;;;;8.57;6.90;;;;;;;17.85;56.29;100268.70;126809;1090;102854;-80
2021/06/09 00:43:01;;;;;;;;;;;;;;;17.79;56.51;100273.41;126641;1090;114102;-80
2021/06/09 00:45:58;;;;;;;9.93;6.70;;;;;;;17.72;56.45;100272.08;126819;1090;102869;-80
2021/06/09 00:48:47;;;;;;;7.93;7.10;;;;;;;17.68;56.79;100275.00;126728;1090;113868;-80
2021/06/09 00:51:35;;;;;;;9.00;8.10;;;;;;;17.62;56.90;100281.47;126562;1090;102975;-80
2021/06/09 00:54:23;;;;;;;10.00;7.37;;;;;;;17.59;57.13;100275.52;126706;1089;112948;-81
2021/06/09 00:57:12;;;;;;;8.60;7.20;;;;;;;17.57;57.04;100274.77;126779;1089;103761;-80
2021/06/09 01:00:00;;;;;;;11.27;7.57;;;;;;;17.53;57.29;100277.59;126645;1090;114040;-80
2021/06/09 01:02:48;;;;;;;7.97;7.17;;;;;;;17.52;57.29;100272.41;126729;1090;102964;-80
2021/06/09 01:05:36;;;;;;;8.30;7.50;;;;;;;17.48;57.47;100279.66;126631;1090;114171;-80
2021/06/09 01:08:24;;;;;;;9.70;7.23;;;;;;;17.48;57.56;100279.66;126766;1088;101727;-80
2021/06/09 01:11:22;;;;;;;9.80;7.45;;;;;;;17.46;57.65;100278.06;126656;1090;114318;-81
2021/06/09 01:14:11;;;;;;;9.30;7.27;;;;;;;17.40;57.73;100273.98;126745;1089;102967;-81
2021/06/09 01:16:59;;;;;;;9.07;7.53;;;;;;;17.36;57.80;100280.39;126649;1090;114609;-81
2021/06/09 01:19:47;;;;;;;9.53;7.43;;;;;;;17.35;57.73;100280.48;126760;1090;103109;-82
2021/06/09 01:22:35;;;;;;;9.73;7.83;;;;;;;17.33;57.74;100280.58;126713;1090;114254;-80
2021/06/09 01:25:23;;;;;;;9.63;7.90;;;;;;;17.30;57.97;100285.19;126738;1088;101908;-80
2021/06/09 01:28:11;;;;;;;9.47;7.40;;;;;;;17.28;58.07;100293.19;126701;1089;102857;-80
2021/06/09 01:30:59;;;;;;;;;;;;;;;17.28;58.24;100292.34;126589;1087;113768;-80
2021/06/09 01:33:46;;;;;;;8.60;7.70;;;;;;;17.22;58.14;100296.16;126680;1089;102945;-80
2021/06/09 01:36:40;;;;;;;12.47;8.27;;;;;;;17.16;58.30;100294.75;126748;1090;113963;-81
2021/06/09 01:39:28;;;;;;;9.33;8.33;;;;;;;17.12;58.48;100287.12;126749;1089;101496;-81
2021/06/09 01:42:21;;;;;;;8.90;8.00;;;;;;;17.09;58.38;100284.67;126624;1090;112934;-81
2021/06/09 01:45:13;;;;;;;9.40;8.50;;;;;;;17.05;58.42;100286.61;126763;1089;102864;-81
2021/06/09 01:48:03;;;;;;;12.47;8.07;;;;;;;17.02;58.75;100280.67;126615;1090;113222;-81
2021/06/09 01:50:52;;;;;;;8.90;7.83;;;;;;;16.98;58.87;100292.34;126928;1090;102916;-81
2021/06/09 01:53:40;;;;;;;10.33;8.33;;;;;;;16.96;58.92;100291.58;126520;1089;113013;-82
2021/06/09 01:56:28;;;;;;;10.57;8.83;;;;;;;16.93;59.03;100295.24;126672;1090;101758;-82
2021/06/09 01:59:20;;;;;;;11.40;8.77;;;;;;;16.87;58.74;100293.78;126647;1089;114245;-82
2021/06/09 02:02:10;;;;;;;11.17;8.30;;;;;;;16.81;58.62;100304.69;126736;1090;102970;-82
2021/06/09 02:04:58;;;;;;;10.97;7.90;;;;;;;16.74;59.03;100302.50;126647;1090;114514;-82
2021/06/09 02:07:47;;;;;;;24.80;18.70;;;;;;;16.69;58.84;100305.37;126748;1088;100752;-82
2021/06/09 02:10:38;;;;;;;17.27;11.77;;;;;;;16.65;59.28;100309.09;126804;1090;102843;-81
2021/06/09 02:13:26;;;;;;;9.77;8.83;;;;;;;16.64;59.38;100312.66;126733;1088;102907;-82
2021/06/09 02:16:14;;;;;;;10.13;8.50;;;;;;;16.58;59.16;100303.33;126781;1090;102882;-82
2021/06/09 02:19:04;;;;;;;9.43;7.87;;;;;;;16.53;59.45;100304.53;126632;1090;113110;-82
2021/06/09 02:21:52;;;;;;;9.67;8.67;;;;;;;16.52;59.34;100303.68;126757;1089;103464;-82
2021/06/09 02:24:41;;;;;;;9.03;8.13;;;;;;;16.51;59.52;100311.63;126573;1090;114369;-82
2021/06/09 02:27:29;;;;;;;9.65;8.65;;;;;;;16.48;59.51;100311.81;126707;1090;103058;-82
2021/06/09 02:30:21;;;;;;;10.87;7.90;;;;;;;16.47;59.45;100312.74;126569;1088;114050;-82
2021/06/09 02:33:12;;;;;;;8.70;7.53;;;;;;;16.46;59.23;100316.31;126753;1089;102989;-83
2021/06/09 02:36:00;;;;;;;10.60;8.70;;;;;;;16.46;59.61;100318.95;126657;1090;114176;-82
2021/06/09 02:38:49;;;;;;;9.37;8.40;;;;;;;16.46;59.38;100311.05;126719;1089;104190;-82
2021/06/09 02:41:37;;;;;;;12.77;8.60;;;;;;;16.45;59.70;100310.20;126728;1089;114223;-79
2021/06/09 02:44:25;;;;;;;10.07;8.47;;;;;;;16.46;59.81;100318.95;126764;1090;102863;-82
2021/06/09 02:47:13;;;;;;;;;;;;;;;16.46;59.46;100314.53;126782;1090;113216;-83
2021/06/09 02:50:01;;;;;;;8.28;7.38;;;;;;;16.43;59.56;100316.48;126714;1089;102844;-82
2021/06/09 02:53:04;;;;;;;10.23;8.27;;;;;;;16.43;59.61;100305.95;126706;1088;103032;-82
2021/06/09 02:56:14;;;;;;;9.73;7.80;;;;;;;16.42;59.38;100314.79;126853;1090;103409;-82
2021/06/09 02:59:13;;;;;;;18.87;13.30;;;;;;;16.43;59.30;100308.59;126877;1089;102951;-82
2021/06/09 03:02:09;;;;;;;13.43;10.00;;;;;;;16.47;59.68;100313.59;126900;1090;114103;-82
2021/06/09 03:05:24;;;;;;;11.10;8.77;;;;;;;16.47;59.62;100326.76;126899;1090;101818;-82
2021/06/09 03:08:33;;;;;;;9.43;8.27;;;;;;;16.44;59.38;100316.40;126573;1090;114260;-82
2021/06/09 03:11:43;;;;;;;;;;;;;;;16.46;59.41;100313.69;126804;1090;103037;-82
2021/06/09 03:18:17;;;;;;;9.50;8.00;;;;;;;16.47;59.42;100310.11;126713;1089;101786;-82
2021/06/09 03:21:19;;;;;;;12.27;9.33;;;;;;;16.49;59.57;100313.50;126378;1092;102884;-82
2021/06/09 03:24:24;;;;;;;10.43;8.00;;;;;;;16.51;59.51;100309.00;126377;1092;103123;-82
2021/06/09 03:27:37;;;;;;;10.80;8.60;;;;;;;16.53;59.28;100304.53;126581;1093;112831;-81
2021/06/09 03:30:29;;;;;;;11.13;8.33;;;;;;;16.57;59.43;100299.00;126448;1093;102950;-83
2021/06/09 03:33:19;;;;;;;12.70;9.00;;;;;;;16.62;59.56;100304.84;126367;1092;114154;-81
2021/06/09 03:36:21;;;;;;;11.27;8.97;;;;;;;16.69;59.33;100302.73;126718;1092;102862;-80
2021/06/09 03:39:12;;;;;;;10.93;9.30;;;;;;;16.76;59.27;100295.36;126329;1092;114221;-80
2021/06/09 03:42:02;;;;;;;9.53;8.57;;;;;;;16.79;59.07;100300.45;126405;1092;103001;-80
2021/06/09 03:44:53;;;;;;;10.63;8.30;;;;;;;16.83;59.05;100299.33;126495;1092;114112;-81
2021/06/09 03:47:42;;;;;;;11.00;8.43;;;;;;;16.85;59.08;100298.30;126437;1093;101185;-80
2021/06/09 03:50:31;;;;;;;11.07;8.70;;;;;;;16.89;58.69;100299.00;126526;1092;114122;-80
2021/06/09 03:53:22;;;;;;;10.30;8.70;;;;;;;16.97;58.56;100301.17;126400;1093;102911;-80
2021/06/09 03:56:12;;;;;;;9.93;8.13;;;;;;;17.03;58.64;100303.45;126330;1092;114471;-81
2021/06/09 03:59:02;;;;;;;10.33;8.43;;;;;;;17.11;58.68;100311.77;126692;1090;102685;-81
2021/06/09 04:01:50;;;;;;;10.27;9.27;;;;;;;17.20;58.54;100313.86;126680;1088;114178;-81
2021/06/09 04:04:40;;;;;;;11.03;9.30;;;;;;;17.29;58.32;100323.88;126759;1090;101201;-80
2021/06/09 04:07:28;;;;;;;10.67;9.07;;;;;;;17.37;58.26;100313.72;126718;1090;114475;-80
2021/06/09 04:10:26;;;;;;;9.97;8.33;;;;;;;17.44;57.96;100320.34;126800;1090;102783;-80
2021/06/09 04:13:15;;;;;;;10.50;7.97;;;;;;;17.53;57.74;100325.05;126671;1090;114067;-80
2021/06/09 04:16:06;;;;;;;8.70;7.33;;;;;;;17.62;57.65;100317.55;126741;1090;102874;-81
2021/06/09 04:18:57;;;;;;;10.03;8.23;;;;;;;17.71;57.60;100317.86;126773;1090;102955;-81
2021/06/09 04:21:44;;;;;;;8.00;7.10;;;;;;;17.81;57.40;100316.38;126711;1089;103085;-81
2021/06/09 04:24:34;;;;;;;11.40;7.40;;;;;;;17.91;57.04;100313.16;126742;1090;102972;-80
2021/06/09 04:27:32;;;;;;;9.97;7.60;;;;;;;17.97;56.52;100318.08;126697;1090;113425;-81
2021/06/09 04:30:22;;;;;;;7.83;7.00;;;;;;;18.03;56.85;100326.45;126691;1089;102931;-81
2021/06/09 04:33:12;;;;;;;11.63;8.40;;;;;;;18.16;56.38;100323.91;126640;1090;113756;-80
2021/06/09 04:36:02;;;;;;;12.90;8.03;;;;;;;18.31;56.38;100327.36;126726;1090;102932;-80
2021/06/09 04:38:50;;;;;;;7.03;6.20;;;;;;;18.48;55.81;100321.02;126695;1090;114520;-80
2021/06/09 04:41:39;;;;;;;7.57;6.40;;;;;;;18.63;55.47;100323.56;126762;1090;102951;-80
2021/06/09 04:44:28;;;;;;;6.70;5.60;;;;;;;18.79;54.93;100323.42;126681;1090;113976;-81
2021/06/09 04:47:16;;;;;;;6.37;5.57;;;;;;;18.94;54.77;100326.87;126781;1090;101728;-81
2021/06/09 04:50:09;;;;;;;8.27;5.23;;;;;;;19.10;54.30;100319.63;126567;1090;113056;-80
2021/06/09 04:53:10;;;;;;;7.47;5.40;;;;;;;19.22;53.75;100320.63;126825;1089;103004;-81
2021/06/09 04:55:58;;;;;;;8.23;5.13;;;;;;;19.32;53.54;100319.88;126632;1090;114115;-81
2021/06/09 04:58:47;;;;;;;8.70;4.73;;;;;;;19.41;53.08;100318.43;126728;1090;102842;-81
2021/06/09 05:01:38;;;;;;;5.80;4.73;;;;;;;19.49;52.89;100317.90;126621;1090;114398;-81
2021/06/09 05:04:27;;;;;;;5.83;4.57;;;;;;;19.55;52.69;100309.56;126694;1090;102876;-81
2021/06/09 05:07:19;;;;;;;5.63;4.70;;;;;;;19.76;52.50;100318.70;126780;1089;102920;-80
2021/06/09 05:10:09;;;;;;;8.13;5.17;;;;;;;19.96;52.25;100317.31;126587;1090;112694;-81
2021/06/09 05:13:15;;;;;;;5.80;4.87;;;;;;;20.12;51.55;100328.53;126818;1090;102852;-81
2021/06/09 05:16:08;;;;;;;7.33;5.03;;;;;;;20.20;51.76;100325.32;126639;1090;113084;-83
2021/06/09 05:19:00;;;;;;;5.00;4.50;;;;;;;20.40;51.58;100322.09;126720;1090;102700;-80
2021/06/09 05:21:52;;;;;;;5.30;4.80;;;;;;;20.62;51.29;100337.32;126632;1090;114142;-83
2021/06/09 05:24:42;;;;;;;9.57;4.87;;;;;;;20.77;50.61;100324.77;126748;1088;102855;-80
2021/06/09 05:27:32;;;;;;;8.03;4.50;;;;;;;20.92;50.20;100320.98;126655;1090;112816;-81
2021/06/09 05:30:22;;;;;;;7.20;5.15;;;;;;;21.17;50.49;100313.84;126731;1090;102288;-80
2021/06/09 05:33:11;;;;;;;6.73;5.00;;;;;;;21.34;49.53;100308.99;126610;1088;113164;-80
2021/06/09 05:36:01;;;;;;;6.30;5.03;;;;;;;21.58;50.10;100319.56;126841;1089;102753;-80
2021/06/09 05:38:49;;;;;;;6.97;5.00;;;;;;;21.86;49.48;100325.38;126719;1090;113450;-80
2021/06/09 05:41:41;;;;;;;8.40;6.30;;;;;;;22.17;49.08;100315.89;126726;1089;103396;-80
2021/06/09 05:44:29;;;;;;;9.43;5.43;;;;;;;22.40;48.76;100311.39;126671;1089;113046;-80
2021/06/09 05:47:17;;;;;;;7.23;5.03;;;;;;;22.74;48.36;100312.16;126756;1090;102965;-82
2021/06/09 05:50:29;;;;;;;5.73;4.77;;;;;;;23.21;48.11;100300.29;126602;1090;114342;-80
2021/06/09 05:53:20;;;;;;;6.20;4.60;;;;;;;24.24;47.21;100309.16;126948;1089;102941;-81
2021/06/09 05:56:09;;;;;;;6.07;4.60;;;;;;;25.70;44.90;100297.63;126629;1090;114214;-80
2021/06/09 05:58:57;;;;;;;11.37;4.23;;;;;;;27.78;42.97;100285.89;126773;1089;102905;-81
2021/06/09 06:01:45;;;;;;;6.07;3.97;;;;;;;29.80;39.49;100278.34;126621;1090;113331;-80
2021/06/09 06:04:35;;;;;;;4.07;3.63;;;;;;;31.56;37.12;100277.61;126761;1089;102866;-80
2021/06/09 06:07:23;;;;;;;4.60;3.73;;;;;;;33.14;34.82;100272.50;126827;1090;102997;-81
2021/06/09 06:10:15;;;;;;;5.63;3.17;;;;;;;34.42;32.26;100275.62;126602;1089;114014;-80
2021/06/09 06:13:05;;;;;;;3.13;2.77;;;;;;;35.70;30.57;100277.18;126775;1090;102898;-81
2021/06/09 06:15:57;;;;;;;4.07;2.80;;;;;;;36.59;29.02;100283.77;126686;1090;113985;-80
2021/06/09 06:18:48;;;;;;;3.93;2.80;;;;;;;37.66;27.78;100281.91;126839;1089;102931;-80
2021/06/09 06:21:37;;;;;;;3.03;2.63;;;;;;;38.62;26.12;100281.20;126556;1089;114133;-81
2021/06/09 06:24:26;;;;;;;5.07;3.10;;;;;;;39.32;24.55;100272.34;126914;1090;103080;-80
2021/06/09 06:27:16;;;;;;;3.73;2.83;;;;;;;39.83;23.94;100268.89;126608;1089;114188;-80
2021/06/09 06:30:04;;;;;;;5.93;2.83;;;;;;;40.24;22.88;100277.97;126739;1090;102871;-81
2021/06/09 06:32:55;;;;;;;2.93;2.30;;;;;;;40.77;22.37;100277.63;126605;1089;113914;-81
2021/06/09 06:35:47;;;;;;;2.57;2.37;;;;;;;41.41;21.77;100272.68;126812;1089;102898;-81
2021/06/09 06:38:37;;;;;;;3.60;2.30;;;;;;;41.90;20.82;100268.19;126764;1090;113077;-80
2021/06/09 06:41:28;;;;;;;3.47;2.10;;;;;;;42.47;20.31;100270.50;126852;1088;103011;-81
2021/06/09 06:44:16;;;;;;;3.67;2.00;;;;;;;43.03;19.13;100268.31;126645;1090;114134;-81
2021/06/09 06:47:04;;;;;;;4.13;2.03;;;;;;;43.16;18.07;100278.03;126810;1090;102913;-81
2021/06/09 06:49:53;;;;;;;2.60;2.10;;;;;;;43.07;17.56;100285.91;126729;1089;114125;-81
2021/06/09 06:52:43;;;;;;;2.93;1.70;;;;;;;43.22;17.74;100274.22;126832;1090;102868;-81
2021/06/09 06:55:32;;;;;;;2.10;1.67;;;;;;;43.36;17.83;100277.37;126800;1089;102871;-81
2021/06/09 06:58:20;;;;;;;3.60;2.03;;;;;;;43.63;17.43;100269.00;126572;1090;112867;-80
2021/06/09 07:01:08;;;;;;;3.27;2.10;;;;;;;43.89;16.90;100269.98;126758;1090;102996;-81
2021/06/09 07:03:58;;;;;;;2.63;2.00;;;;;;;44.08;16.63;100284.08;126607;1090;113904;-81
2021/06/09 07:06:48;;;;;;;5.27;2.30;;;;;;;44.02;16.41;100283.23;126803;1090;101124;-81
2021/06/09 07:09:37;;;;;;;7.07;2.70;;;;;;;44.04;16.21;100288.46;126661;1090;113150;-80
2021/06/09 07:12:25;;;;;;;4.17;2.17;;;;;;;43.86;15.79;100290.59;126710;1089;102957;-80
2021/06/09 07:15:17;;;;;;;4.43;1.90;;;;;;;43.28;15.76;100289.66;126672;1090;114082;-80
2021/06/09 07:18:06;;;;;;;4.37;2.03;;;;;;;42.82;16.35;100288.42;126800;1090;100598;-81
2021/06/09 07:20:54;;;;;;;2.25;1.90;;;;;;;42.76;15.18;100284.81;126728;1090;114334;-81
2021/06/09 07:23:44;;;;;;;4.63;2.20;;;;;;;42.11;16.00;100288.47;126924;1088;102861;-80
2021/06/09 07:26:56;;;;;;;2.30;1.83;;;;;;;41.13;16.45;100289.20;126448;1090;113008;-80
2021/06/09 07:29:45;;;;;;;3.33;1.80;;;;;;;39.28;17.17;100291.09;126774;1090;102878;-82
2021/06/09 07:32:37;;;;;;;6.07;2.23;;;;;;;37.94;18.31;100287.70;126717;1090;113060;-80
2021/06/09 07:35:25;;;;;;;2.90;2.43;;;;;;;36.83;19.34;100295.80;126625;1090;102878;-81
2021/06/09 07:38:18;;;;;;;4.97;2.50;;;;;;;36.02;19.18;100291.73;126551;1090;113093;-79
2021/06/09 07:41:09;;;;;;;5.23;2.23;;;;;;;36.49;20.23;100291.58;126649;1088;103048;-80
2021/06/09 07:44:00;;;;;;;2.85;2.25;;;;;;;36.24;20.23;100284.13;126670;1090;103023;-79
2021/06/09 07:46:51;;;;;;;3.87;2.20;;;;;;;35.34;20.10;100284.92;126767;1090;102870;-80
2021/06/09 07:49:46;;;;;;;5.10;3.90;;;;;;;34.51;20.83;100298.78;126794;1090;102940;-80
2021/06/09 07:52:37;;;;;;;3.00;2.70;;;;;;;34.39;21.49;100294.15;126570;1090;112832;-81
2021/06/09 07:55:26;;;;;;;4.47;2.90;;;;;;;34.38;21.58;100296.02;126685;1090;103047;-81
2021/06/09 07:58:16;;;;;;;4.07;2.40;;;;;;;34.22;21.98;100293.64;126570;1089;114267;-82
2021/06/09 08:01:05;;;;;;;3.07;2.50;;;;;;;33.61;21.94;100283.51;126716;1090;102649;-82
2021/06/09 08:03:56;;;;;;;3.87;2.27;;;;;;;32.94;22.05;100281.27;126810;1089;113449;-82
2021/06/09 08:06:44;;;;;;;5.97;2.40;;;;;;;32.21;22.28;100289.54;126716;1090;102867;-81
2021/06/09 08:09:32;;;;;;;5.53;2.63;;;;;;;31.66;23.27;100291.67;126527;1089;112836;-82
2021/06/09 08:12:20;;;;;;;3.17;2.20;;;;;;;31.66;23.65;100297.06;126912;1090;103004;-81
2021/06/09 08:15:13;;;;;;;2.93;2.60;;;;;;;31.86;23.65;100300.91;126643;1090;114044;-81
2021/06/09 08:18:03;;;;;;;3.87;2.43;;;;;;;32.69;23.05;100296.17;126681;1090;102303;-81
2021/06/09 08:21:04;;;;;;;2.90;2.37;;;;;;;32.99;23.12;100294.19;126548;1090;114139;-81
2021/06/09 08:23:52;;;;;;;2.73;2.53;;;;;;;33.28;22.59;100301.31;126773;1090;103111;-81
2021/06/09 08:26:41;;;;;;;3.83;2.33;;;;;;;33.10;22.48;100295.55;126656;1090;114123;-81
2021/06/09 08:29:31;;;;;;;2.57;2.37;;;;;;;33.42;22.49;100292.32;126860;1090;102883;-81
2021/06/09 08:32:20;;;;;;;3.33;2.27;;;;;;;33.38;22.23;100296.42;126713;1088;103090;-80
2021/06/09 08:35:09;;;;;;;2.57;2.37;;;;;;;33.56;22.49;100295.93;126609;1090;113997;-80
2021/06/09 08:37:57;;;;;;;2.40;2.20;;;;;;;34.08;21.79;100298.15;126852;1090;102852;-81
2021/06/09 08:40:44;;;;;;;3.00;2.17;;;;;;;34.70;21.48;100308.00;126618;1090;112895;-81
2021/06/09 08:43:38;;;;;;;2.40;2.10;;;;;;;35.30;20.70;100298.08;126717;1090;101926;-81
2021/06/09 08:46:28;;;;;;;2.63;2.20;;;;;;;35.47;21.16;100293.09;126626;1089;113999;-81
2021/06/09 08:49:17;;;;;;;4.53;2.17;;;;;;;35.38;20.20;100295.20;126679;1090;102998;-80
2021/06/09 08:52:10;;;;;;;2.70;2.13;;;;;;;35.02;20.52;100300.17;126613;1089;113972;-81
2021/06/09 08:55:00;;;;;;;3.00;2.40;;;;;;;34.57;20.50;100301.70;126754;1090;102920;-81
2021/06/09 08:57:48;;;;;;;3.23;2.00;;;;;;;33.99;19.25;100299.37;126766;1090;112873;-81
2021/06/09 09:00:38;;;;;;;2.33;1.80;;;;;;;33.44;19.71;100301.06;126737;1088;102866;-80
2021/06/09 09:03:27;;;;;;;1.97;1.83;;;;;;;33.16;20.44;100306.41;126639;1089;113151;-81
2021/06/09 09:06:16;;;;;;;2.13;1.93;;;;;;;33.10;20.73;100307.20;126694;1088;102823;-81
2021/06/09 09:09:05;;;;;;;2.70;1.80;;;;;;;33.46;21.04;100309.81;126580;1090;114083;-81
2021/06/09 09:11:53;;;;;;;2.10;1.73;;;;;;;33.63;20.75;100311.19;126882;1090;102856;-81
2021/06/09 09:14:41;;;;;;;2.03;1.80;;;;;;;33.99;20.52;100298.53;126693;1090;103319;-81
2021/06/09 09:17:29;;;;;;;3.87;2.60;;;;;;;34.00;20.63;100303.73;126656;1090;112954;-81
2021/06/09 09:20:22;;;;;;;3.90;2.57;;;;;;;34.09;20.67;100299.81;126720;1089;102845;-81
2021/06/09 09:23:21;;;;;;;2.97;1.93;;;;;;;34.42;20.61;100289.16;126703;1090;113009;-81
2021/06/09 09:26:31;;;;;;;2.30;2.03;;;;;;;34.80;20.09;100289.45;126759;1089;102866;-81
2021/06/09 09:29:24;;;;;;;2.10;1.90;;;;;;;34.81;20.30;100301.96;126669;1090;113776;-81
2021/06/09 09:32:12;;;;;;;4.90;2.53;;;;;;;35.08;20.01;100283.06;126764;1090;102820;-81
2021/06/09 09:35:05;;;;;;;2.30;2.10;;;;;;;35.35;19.41;100290.17;126563;1090;114283;-81
2021/06/09 09:38:09;;;;;;;2.63;1.70;;;;;;;35.57;19.34;100287.25;126766;1090;102910;-81
2021/06/09 09:41:03;;;;;;;3.37;2.10;;;;;;;35.35;19.58;100295.59;126637;1090;114590;-82
2021/06/09 09:43:57;;;;;;;3.30;1.70;;;;;;;34.98;18.98;100297.02;126770;1090;101071;-81
2021/06/09 09:46:54;;;;;;;5.87;2.00;;;;;;;34.34;19.45;100296.61;126668;1090;114011;-81
2021/06/09 09:49:44;;;;;;;3.70;1.77;;;;;;;33.77;19.52;100301.30;126724;1090;103035;-81
2021/06/09 09:52:48;;;;;;;2.50;1.90;;;;;;;33.19;20.31;100297.06;126585;1090;114213;-81
2021/06/09 09:55:57;;;;;;;5.27;2.10;;;;;;;32.77;20.72;100304.13;126759;1090;102779;-81
2021/06/09 09:59:04;;;;;;;2.57;2.03;;;;;;;32.26;20.80;100303.30;126711;1090;114097;-81
2021/06/09 10:01:55;;;;;;;2.63;2.13;;;;;;;31.68;20.88;100307.66;126760;1090;100866;-81
2021/06/09 10:04:52;;;;;;;2.90;2.20;;;;;;;31.24;21.97;100309.27;126576;1090;114070;-82
2021/06/09 10:08:05;;;;;;;2.37;2.17;;;;;;;30.73;22.45;100316.17;126675;1089;102942;-82
2021/06/09 10:10:52;;;;;;;3.10;2.30;;;;;;;30.51;23.01;100314.23;126673;1090;113914;-82
2021/06/09 10:13:44;;;;;;;3.40;1.93;;;;;;;30.24;23.26;100312.87;126694;1089;102851;-84
2021/06/09 10:16:34;;;;;;;6.73;3.47;;;;;;;29.95;23.43;100325.03;126708;1090;113898;-82
2021/06/09 10:19:29;;;;;;;3.27;2.50;;;;;;;29.68;23.96;100323.59;126617;1090;102925;-82
2021/06/09 10:22:21;;;;;;;3.73;3.30;;;;;;;29.57;24.48;100312.34;126629;1090;113994;-82
2021/06/09 10:25:13;;;;;;;2.40;2.20;;;;;;;29.80;24.61;100315.98;126628;1089;102943;-82
2021/06/09 10:28:01;;;;;;;2.70;2.37;;;;;;;30.32;24.34;100320.89;126772;1090;114023;-81
2021/06/09 10:30:49;;;;;;;2.60;2.40;;;;;;;30.75;24.38;100321.38;126689;1090;101460;-82
2021/06/09 10:33:37;;;;;;;4.50;2.33;;;;;;;30.71;23.92;100314.68;126606;1089;112989;-81
2021/06/09 10:36:29;;;;;;;3.33;2.17;;;;;;;30.54;23.41;100311.22;126743;1090;102972;-81
2021/06/09 10:39:19;;;;;;;3.50;2.53;;;;;;;30.47;23.89;100311.06;126697;1089;114179;-82
2021/06/09 10:42:16;;;;;;;5.10;2.60;;;;;;;30.79;24.10;100301.16;126727;1090;102942;-81
2021/06/09 10:45:06;;;;;;;2.70;2.37;;;;;;;31.28;24.07;100298.12;126742;1089;102892;-81
2021/06/09 10:47:56;;;;;;;4.40;2.60;;;;;;;31.44;23.97;100297.97;126742;1089;102927;-81
2021/06/09 10:50:46;;;;;;;3.57;2.70;;;;;;;31.77;24.08;100291.22;126863;1090;101359;-81
2021/06/09 10:53:37;;;;;;;3.07;2.77;;;;;;;32.11;24.18;100285.26;126543;1089;114147;-81
2021/06/09 10:56:25;;;;;;;3.70;2.87;;;;;;;32.37;23.97;100286.66;126679;1089;102856;-80
2021/06/09 10:59:26;;;;;;;5.83;2.70;;;;;;;32.73;23.36;100286.64;126658;1089;114306;-80
2021/06/09 11:02:23;;;;;;;2.73;2.50;;;;;;;32.73;22.87;100286.64;126606;1090;102877;-81
2021/06/09 11:05:12;;;;;;;4.20;2.60;;;;;;;32.66;23.32;100283.86;126741;1089;114260;-81
2021/06/09 11:08:05;;;;;;;2.70;2.50;;;;;;;32.78;23.41;100273.39;126766;1090;102651;-81
2021/06/09 11:10:53;;;;;;;5.20;2.63;;;;;;;32.81;22.75;100272.20;126606;1090;114998;-81
2021/06/09 11:13:45;;;;;;;3.30;2.83;;;;;;;32.86;23.07;100267.91;126651;1090;102596;-81
2021/06/09 11:16:54;;;;;;;5.37;2.70;;;;;;;32.98;22.57;100271.74;126600;1090;114160;-81
2021/06/09 11:19:46;;;;;;;3.43;2.73;;;;;;;33.13;23.01;100265.43;126737;1090;103342;-81
2021/06/09 11:22:40;;;;;;;3.37;2.70;;;;;;;33.17;22.57;100261.30;126712;1090;114057;-81
2021/06/09 11:25:46;;;;;;;6.57;2.73;;;;;;;32.98;22.39;100258.23;126768;1090;102850;-81
2021/06/09 11:28:34;;;;;;;3.00;2.73;;;;;;;32.91;22.41;100251.95;126673;1088;113244;-81
2021/06/09 11:31:33;;;;;;;3.90;3.03;;;;;;;32.80;22.34;100255.16;126860;1089;103027;-81
2021/06/09 11:34:22;;;;;;;4.43;3.40;;;;;;;32.58;22.13;100261.55;126601;1090;114445;-81
2021/06/09 11:37:11;;;;;;;2.60;2.40;;;;;;;32.57;22.41;100249.92;126670;1089;102783;-81
2021/06/09 11:40:00;;;;;;;3.17;2.40;;;;;;;32.72;22.72;100248.00;126665;1088;113453;-81
2021/06/09 11:43:37;;;;;;;2.70;2.50;;;;;;;32.82;22.12;100236.89;126681;1089;102845;-80
2021/06/09 11:46:29;;;;;;;2.90;2.67;;;;;;;32.63;22.17;100240.20;126471;1092;114290;-80
2021/06/09 11:49:25;;;;;;;3.67;3.10;;;;;;;32.36;22.45;100234.55;126529;1092;102648;-82
2021/06/09 11:52:15;;;;;;;4.43;3.23;;;;;;;31.85;22.63;100237.20;126431;1092;114286;-82
2021/06/09 11:55:12;;;;;;;2.90;2.70;;;;;;;31.62;23.14;100232.92;126526;1092;103064;-82
2021/06/09 11:58:12;;;;;;;3.47;2.87;;;;;;;31.35;23.26;100226.29;126493;1091;113483;-81
2021/06/09 12:01:26;;;;;;;9.80;3.40;;;;;;;31.00;24.06;100228.61;126606;1092;103297;-81
2021/06/09 12:04:45;;;;;;;5.47;3.03;;;;;;;30.63;23.97;100237.48;126515;1092;114413;-80
2021/06/09 12:07:34;;;;;;;;;;;;;;;30.51;24.21;100231.64;126743;1092;103040;-80
2021/06/09 12:10:21;;;;;;;6.20;2.90;;;;;;;30.40;24.95;100231.23;126504;1091;102911;-83
2021/06/09 12:13:24;;;;;;;5.20;3.30;;;;;;;30.45;24.48;100216.22;126600;1092;103002;-82
2021/06/09 12:16:21;;;;;;;3.10;2.80;;;;;;;30.61;24.58;100215.27;126234;1092;115235;-83
2021/06/09 12:19:42;;;;;;;3.43;3.13;;;;;;;30.71;24.74;100218.59;126325;1093;103119;-82
2021/06/09 12:22:47;;;;;;;3.47;3.17;;;;;;;30.82;25.22;100210.08;126585;1090;114218;-82
2021/06/09 12:25:37;;;;;;;3.97;3.30;;;;;;;30.90;24.75;100203.80;126750;1090;102855;-82
2021/06/09 12:28:28;;;;;;;3.67;3.27;;;;;;;30.63;24.95;100206.02;126627;1090;114232;-82
2021/06/09 12:31:17;;;;;;;5.40;3.47;;;;;;;30.29;25.24;100205.55;126720;1089;102860;-82
2021/06/09 12:34:06;;;;;;;4.80;3.53;;;;;;;30.13;25.78;100197.58;126631;1090;114300;-82
2021/06/09 12:37:11;;;;;;;3.80;3.17;;;;;;;30.08;26.03;100200.80;126684;1090;102861;-82
2021/06/09 12:40:08;;;;;;;7.40;3.67;;;;;;;29.87;26.06;100204.07;126636;1090;114361;-81
2021/06/09 12:43:06;;;;;;;;;;;;;;;29.55;26.74;100202.34;126769;1089;103023;-82
2021/06/09 12:45:54;;;;;;;4.73;4.10;;;;;;;29.47;26.46;100197.84;126681;1089;102872;-82
2021/06/09 12:48:56;;;;;;;4.97;3.57;;;;;;;29.33;26.76;100194.98;126916;1090;102958;-82
2021/06/09 12:51:44;;;;;;;3.67;3.30;;;;;;;29.35;27.27;100183.05;126690;1090;114256;-82
2021/06/09 12:54:33;;;;;;;4.00;3.37;;;;;;;29.18;26.71;100186.78;126775;1089;102848;-82
2021/06/09 12:57:34;;;;;;;4.30;3.37;;;;;;;29.10;26.90;100184.97;126783;1090;102850;-82
2021/06/09 13:00:41;;;;;;;3.83;3.00;;;;;;;29.12;26.76;100172.20;126875;1089;102890;-82
2021/06/09 13:03:35;;;;;;;4.37;3.10;;;;;;;29.11;26.86;100170.53;126887;1090;102666;-82
2021/06/09 13:06:25;;;;;;;5.43;3.40;;;;;;;28.90;26.76;100164.83;126703;1089;114149;-81